Time;durP1;ratioP1;P1;durP2;ratioP2;P2;SDS_P1;SDS_P2;PMS_P1;PMS_P2;Temp;Humidity;BMP_temperature;BMP_pressure;BME280_temperature;BME280_humidity;BME280_pressure;Samples;Min_cycle;Max_cycle;Signal;HPM_P1;HPM_P2
2023/01/18 00:00:49;;;;;;;7.10;4.18;;;;;;;-3.15;100.00;89671.03;4990126;28;20041;-75
2023/01/18 00:03:15;;;;;;;6.90;3.80;;;;;;;-3.20;100.00;89671.09;4992155;28;20022;-76
2023/01/18 00:05:43;;;;;;;6.20;3.67;;;;;;;-3.27;100.00;89668.06;4974224;28;20386;-75
2023/01/18 00:08:15;;;;;;;6.57;3.63;;;;;;;-3.36;100.00;89647.44;4975810;28;20053;-75
2023/01/18 00:10:41;;;;;;;7.03;3.67;;;;;;;-3.37;100.00;89663.06;4985972;28;20381;-76
2023/01/18 00:13:07;;;;;;;7.25;3.45;;;;;;;-3.48;100.00;89654.72;4991741;28;20065;-76
2023/01/18 00:15:34;;;;;;;5.72;3.47;;;;;;;-3.49;100.00;89660.88;4991936;28;20030;-76
2023/01/18 00:18:00;;;;;;;6.45;3.40;;;;;;;-3.54;100.00;89657.59;4989687;28;20472;-75
2023/01/18 00:20:28;;;;;;;6.18;2.90;;;;;;;-3.61;100.00;89658.66;4988498;28;20030;-76
2023/01/18 00:22:54;;;;;;;7.28;4.18;;;;;;;-3.64;100.00;89654.09;4991826;28;20397;-75
2023/01/18 00:25:22;;;;;;;6.85;3.55;;;;;;;-3.66;100.00;89651.06;4986487;28;20031;-76
2023/01/18 00:27:52;;;;;;;6.82;3.55;;;;;;;-3.66;100.00;89655.41;4971072;28;20121;-75
2023/01/18 00:30:20;;;;;;;5.57;3.15;;;;;;;-3.69;100.00;89651.59;4992921;28;20509;-75
2023/01/18 00:32:47;;;;;;;3.78;2.20;;;;;;;-3.71;100.00;89648.56;4988161;28;20104;-76
2023/01/18 00:35:14;;;;;;;4.35;2.25;;;;;;;-3.67;100.00;89648.75;4989335;28;20036;-75
2023/01/18 00:37:40;;;;;;;4.80;2.55;;;;;;;-3.72;100.00;89654.69;4991702;28;20239;-75
2023/01/18 00:40:08;;;;;;;4.38;2.28;;;;;;;-3.72;100.00;89651.38;4989342;28;20026;-76
2023/01/18 00:45:19;;;;;;;4.10;2.30;;;;;;;-3.72;100.00;89661.59;4989201;28;20042;-75
2023/01/18 00:47:45;;;;;;;6.15;2.95;;;;;;;-3.73;100.00;89672.88;4990530;28;20041;-76
2023/01/18 00:50:10;;;;;;;6.47;2.75;;;;;;;-3.76;100.00;89663.91;4989032;28;20043;-76
2023/01/18 00:52:36;;;;;;;4.82;2.55;;;;;;;-3.76;100.00;89671.59;4990836;28;20443;-75
2023/01/18 00:55:04;;;;;;;6.00;2.40;;;;;;;-3.78;100.00;89671.13;4989975;28;20038;-75
2023/01/18 00:57:29;;;;;;;4.85;2.45;;;;;;;-3.81;100.00;89667.28;4991470;28;20019;-76
2023/01/18 00:59:56;;;;;;;4.10;2.38;;;;;;;-3.85;100.00;89665.53;4989071;28;20037;-76
2023/01/18 01:02:22;;;;;;;4.53;2.33;;;;;;;-3.84;100.00;89677.28;5002652;28;20045;-76
2023/01/18 01:07:31;;;;;;;3.08;1.75;;;;;;;-3.94;100.00;89674.78;4990759;28;20569;-77
2023/01/18 01:09:57;;;;;;;3.55;1.85;;;;;;;-3.97;100.00;89681.97;4981033;28;20043;-77
2023/01/18 01:26:09;;;;;;;3.95;1.88;;;;;;;-4.03;100.00;89703.50;4990673;28;20093;-77
2023/01/18 01:28:42;;;;;;;2.83;1.80;;;;;;;-4.04;100.00;89694.28;4989623;28;20034;-77
2023/01/18 01:31:14;;;;;;;3.75;1.63;;;;;;;-4.07;100.00;89702.50;4982466;28;20412;-77
2023/01/18 01:33:40;;;;;;;3.97;1.87;;;;;;;-4.09;100.00;89707.09;4994518;28;20037;-77
2023/01/18 01:36:11;;;;;;;2.58;1.58;;;;;;;-4.11;100.00;89713.50;4993094;28;20359;-77
2023/01/18 01:38:40;;;;;;;2.53;1.48;;;;;;;-4.13;100.00;89713.78;4993113;28;20407;-77
2023/01/18 01:41:25;;;;;;;3.72;1.88;;;;;;;-4.13;100.00;89713.78;4992492;28;20065;-76
2023/01/18 01:43:52;;;;;;;2.03;1.42;;;;;;;-4.13;100.00;89718.13;4994196;28;20042;-77
2023/01/18 01:46:45;;;;;;;3.28;1.70;;;;;;;-4.13;100.00;89718.88;4992843;28;20551;-77
2023/01/18 01:49:38;;;;;;;2.42;1.52;;;;;;;-4.13;100.00;89711.22;4993853;28;20436;-77
2023/01/18 01:52:15;;;;;;;4.50;2.08;;;;;;;-4.13;100.00;89713.78;4991893;28;20046;-77
2023/01/18 01:54:48;;;;;;;4.05;1.88;;;;;;;-4.11;100.00;89716.81;4994242;28;20026;-77
2023/01/18 01:57:19;;;;;;;3.50;1.90;;;;;;;-4.10;100.00;89712.47;4993996;28;20049;-77
2023/01/18 01:59:54;;;;;;;3.55;1.90;;;;;;;-4.12;100.00;89717.88;4989370;28;20068;-77
2023/01/18 02:02:20;;;;;;;2.88;1.70;;;;;;;-4.16;100.00;89716.09;4989646;28;20034;-77
2023/01/18 02:04:52;;;;;;;3.58;2.00;;;;;;;-4.15;100.00;89718.38;4993431;28;20447;-77
2023/01/18 02:07:19;;;;;;;3.10;1.80;;;;;;;-4.15;100.00;89709.97;4993921;28;20045;-77
2023/01/18 02:09:45;;;;;;;3.88;1.98;;;;;;;-4.16;100.00;89713.56;4994542;28;20247;-77
2023/01/18 02:12:12;;;;;;;3.40;2.03;;;;;;;-4.17;100.00;89717.88;4982308;28;20101;-77
2023/01/18 02:14:38;;;;;;;5.75;2.15;;;;;;;-4.19;100.00;89723.28;4980353;28;20038;-77
2023/01/18 02:17:37;;;;;;;3.65;2.00;;;;;;;-4.20;100.00;89724.28;4992028;28;20042;-77
2023/01/18 02:20:24;;;;;;;5.85;2.08;;;;;;;-4.19;100.00;89710.50;4993430;28;20042;-77
2023/01/18 02:23:27;;;;;;;2.67;1.60;;;;;;;-4.20;100.00;89715.88;4993324;28;20045;-77
2023/01/18 02:26:30;;;;;;;3.30;1.80;;;;;;;-4.20;100.00;89708.19;4993470;28;20405;-77
2023/01/18 02:29:07;;;;;;;4.53;1.80;;;;;;;-4.28;100.00;89701.88;4988361;28;20500;-75
2023/01/18 02:31:43;;;;;;;4.55;2.03;;;;;;;-4.21;100.00;89721.97;4979016;28;20042;-75
2023/01/18 02:34:09;;;;;;;3.65;1.88;;;;;;;-4.22;100.00;89723.78;4993291;28;20468;-75
2023/01/18 02:37:06;;;;;;;4.38;1.70;;;;;;;-4.21;100.00;89721.97;4993357;28;20072;-78
2023/01/18 02:39:43;;;;;;;3.70;1.92;;;;;;;-4.26;100.00;89714.34;4986576;28;20065;-76
2023/01/18 02:47:57;;;;;;;;;;;;;;;-4.23;100.00;89736.84;4992741;28;20042;-77
2023/01/18 02:50:26;;;;;;;4.60;1.92;;;;;;;-4.24;100.00;89748.06;4980375;28;19948;-77
2023/01/18 02:52:52;;;;;;;3.85;2.17;;;;;;;-4.24;100.00;89748.81;4984108;28;20034;-77
2023/01/18 02:55:40;;;;;;;6.60;2.45;;;;;;;-4.21;100.00;89758.53;4993137;28;20132;-76
2023/01/18 02:58:33;;;;;;;4.07;2.08;;;;;;;-4.14;100.00;89760.81;4987010;28;20512;-76
2023/01/18 03:01:25;;;;;;;4.30;2.38;;;;;;;-4.03;100.00;89759.72;4991669;28;20065;-76
2023/01/18 03:03:57;;;;;;;4.50;2.08;;;;;;;-4.01;100.00;89762.00;4991551;28;20070;-76
2023/01/18 03:06:26;;;;;;;;;;;;;;;-3.98;100.00;89761.47;4990388;28;20034;-76
2023/01/18 03:08:53;;;;;;;3.65;2.00;;;;;;;-3.95;100.00;89766.03;4991923;28;19914;-76
2023/01/18 03:11:49;;;;;;;3.22;1.90;;;;;;;-3.93;100.00;89768.34;4991783;28;20133;-76
2023/01/18 03:14:36;;;;;;;3.17;1.85;;;;;;;-3.94;100.00;89771.91;4992243;28;20072;-76
2023/01/18 03:17:05;;;;;;;3.70;2.20;;;;;;;-3.98;100.00;89769.91;4992771;28;20027;-76
2023/01/18 03:25:36;;;;;;;3.35;1.90;;;;;;;-4.10;100.00;89782.22;4992471;28;20116;-76
2023/01/18 03:33:46;;;;;;;3.78;1.63;;;;;;;-4.17;100.00;89779.19;4989946;28;20046;-76
2023/01/18 03:36:46;;;;;;;2.90;1.70;;;;;;;-4.17;100.00;89781.75;4990962;28;20061;-76
2023/01/18 03:39:56;;;;;;;3.25;1.95;;;;;;;-4.18;100.00;89775.13;4984951;28;20042;-75
2023/01/18 03:42:29;;;;;;;3.78;2.03;;;;;;;-4.24;100.00;89765.94;4992296;28;20109;-76
2023/01/18 03:45:12;;;;;;;3.75;2.00;;;;;;;-4.29;100.00;89773.66;4978523;28;20033;-76
2023/01/18 03:47:38;;;;;;;3.85;1.80;;;;;;;-4.29;100.00;89781.31;4985415;28;20034;-76
2023/01/18 03:50:04;;;;;;;3.28;1.90;;;;;;;-4.28;100.00;89790.50;4989083;28;20156;-76
2023/01/18 03:52:41;;;;;;;3.05;1.75;;;;;;;-4.32;100.00;89790.25;4990689;28;20049;-76
2023/01/18 03:55:13;;;;;;;3.20;1.70;;;;;;;-4.33;100.00;89800.72;4989111;28;20041;-76
2023/01/18 03:57:48;;;;;;;2.67;1.55;;;;;;;-4.36;100.00;89803.81;4992027;28;20085;-76
2023/01/18 04:00:15;;;;;;;2.88;1.75;;;;;;;-4.37;100.00;89808.16;4989271;28;20092;-76
2023/01/18 04:02:45;;;;;;;2.35;1.58;;;;;;;-4.38;100.00;89813.53;4985094;28;20497;-76
2023/01/18 04:05:11;;;;;;;3.20;1.80;;;;;;;-4.39;100.00;89817.84;4991270;28;20393;-76
2023/01/18 04:07:37;;;;;;;3.42;1.55;;;;;;;-4.38;100.00;89808.44;4991608;28;20034;-76
2023/01/18 04:10:03;;;;;;;4.15;2.10;;;;;;;-4.37;100.00;89812.50;4990808;28;20152;-76
2023/01/18 04:12:30;;;;;;;2.85;1.60;;;;;;;-4.38;100.00;89819.41;4991768;28;20046;-76
2023/01/18 04:14:56;;;;;;;2.35;1.42;;;;;;;-4.40;100.00;89822.19;4988584;28;20038;-76
2023/01/18 04:17:21;;;;;;;2.05;1.38;;;;;;;-4.34;100.00;89814.53;4990127;28;20034;-76
2023/01/18 04:19:47;;;;;;;2.72;1.52;;;;;;;-4.35;100.00;89811.19;4991550;28;20436;-76
2023/01/18 04:22:13;;;;;;;2.67;1.60;;;;;;;-4.34;100.00;89819.66;4990451;28;20042;-76
2023/01/18 04:24:39;;;;;;;2.80;1.70;;;;;;;-4.37;100.00;89826.03;4989679;28;20069;-77
2023/01/18 04:27:05;;;;;;;3.13;1.60;;;;;;;-4.41;100.00;89830.91;4989980;28;20401;-77
2023/01/18 04:29:30;;;;;;;2.65;1.60;;;;;;;-4.44;100.00;89828.84;4989373;28;20555;-76
2023/01/18 04:31:56;;;;;;;2.55;1.58;;;;;;;-4.49;100.00;89828.88;4990343;28;20042;-76
2023/01/18 04:34:22;;;;;;;2.58;1.50;;;;;;;-4.51;100.00;89827.59;4989555;28;20038;-76
2023/01/18 04:36:49;;;;;;;3.38;1.80;;;;;;;-4.57;100.00;89829.44;4991254;28;20042;-76
2023/01/18 04:39:15;;;;;;;3.38;1.98;;;;;;;-4.57;100.00;89829.44;4991904;28;20388;-76
2023/01/18 04:41:41;;;;;;;2.70;1.58;;;;;;;-4.52;100.00;89828.66;4991297;28;20559;-76
2023/01/18 04:44:07;;;;;;;3.65;2.00;;;;;;;-4.52;100.00;89824.31;4989078;28;20050;-76
2023/01/18 04:46:33;;;;;;;3.20;1.83;;;;;;;-4.55;100.00;89818.94;4991244;28;20035;-76
2023/01/18 04:48:59;;;;;;;3.72;1.77;;;;;;;-4.52;100.00;89837.06;4989186;28;20065;-76
2023/01/18 04:51:26;;;;;;;2.80;1.77;;;;;;;-4.54;100.00;89834.00;4989519;28;20463;-76
2023/01/18 04:53:52;;;;;;;4.72;2.00;;;;;;;-4.49;100.00;89838.34;4989962;28;20049;-76
2023/01/18 04:56:18;;;;;;;4.53;2.40;;;;;;;-4.41;100.00;89840.34;4989538;28;20492;-76
2023/01/18 04:58:44;;;;;;;5.18;2.70;;;;;;;-4.37;100.00;89840.59;4989355;28;20527;-76
2023/01/18 05:01:15;;;;;;;4.38;2.33;;;;;;;-4.32;100.00;89838.00;4990126;28;20046;-75
2023/01/18 05:03:41;;;;;;;6.30;2.88;;;;;;;-4.32;100.00;89840.56;4987916;28;20038;-76
2023/01/18 05:06:09;;;;;;;5.38;3.30;;;;;;;-4.31;100.00;89842.09;4975707;28;20043;-77
2023/01/18 05:08:35;;;;;;;5.32;3.03;;;;;;;-4.31;100.00;89849.78;4977435;28;20043;-77
2023/01/18 05:11:05;;;;;;;6.50;2.83;;;;;;;-4.36;100.00;89847.25;4993622;28;20034;-77
2023/01/18 05:13:31;;;;;;;4.60;2.50;;;;;;;-4.42;100.00;89849.78;4994083;28;20388;-76
2023/01/18 05:15:58;;;;;;;5.45;3.05;;;;;;;-4.45;100.00;89855.44;4985621;28;20030;-76
2023/01/18 05:18:24;;;;;;;6.15;2.40;;;;;;;-4.49;100.00;89859.53;4996911;28;20313;-76
2023/01/18 05:20:49;;;;;;;4.93;2.45;;;;;;;-4.55;100.00;89860.53;4992214;28;20550;-75
2023/01/18 05:23:15;;;;;;;5.07;2.38;;;;;;;-4.55;100.00;89865.66;4993919;28;20045;-76
2023/01/18 05:25:41;;;;;;;5.07;2.08;;;;;;;-4.59;100.00;89869.78;4994677;28;20041;-76
2023/01/18 05:28:07;;;;;;;2.60;1.70;;;;;;;-4.63;100.00;89868.75;4991264;28;20126;-76
2023/01/18 05:30:37;;;;;;;4.22;1.95;;;;;;;-4.68;100.00;89866.22;4990170;28;20071;-76
2023/01/18 05:33:03;;;;;;;4.32;2.00;;;;;;;-4.68;100.00;89876.44;4989365;28;20042;-75
2023/01/18 05:35:31;;;;;;;3.22;1.80;;;;;;;-4.71;100.00;89864.91;4991163;28;20096;-76
2023/01/18 05:37:56;;;;;;;3.47;1.70;;;;;;;-4.66;100.00;89876.91;4990858;28;20038;-77
2023/01/18 05:40:22;;;;;;;2.92;1.60;;;;;;;-4.69;100.00;89882.53;4988431;28;20472;-77
2023/01/18 05:42:48;;;;;;;3.10;1.80;;;;;;;-4.71;100.00;89882.03;4992919;28;20042;-77
2023/01/18 05:45:13;;;;;;;3.10;1.70;;;;;;;-4.72;100.00;89880.50;4991111;28;20040;-78
2023/01/18 05:47:40;;;;;;;3.10;1.67;;;;;;;-4.68;100.00;89884.09;4991947;28;20045;-77
2023/01/18 05:50:06;;;;;;;3.85;1.85;;;;;;;-4.66;100.00;89892.22;4992627;28;20101;-78
2023/01/18 05:52:32;;;;;;;3.80;1.92;;;;;;;-4.69;100.00;89882.53;4992234;28;20117;-78
2023/01/18 05:54:58;;;;;;;3.35;1.83;;;;;;;-4.65;100.00;89888.66;4989971;28;20038;-77
2023/01/18 05:57:23;;;;;;;3.25;1.85;;;;;;;-4.71;100.00;89892.25;4991272;28;20033;-78
2023/01/18 05:59:49;;;;;;;4.13;1.77;;;;;;;-4.78;100.00;89884.84;4991777;28;20046;-78
2023/01/18 06:02:15;;;;;;;2.47;1.45;;;;;;;-4.78;100.00;89881.53;4992628;28;20046;-78
2023/01/18 06:04:43;;;;;;;2.08;1.40;;;;;;;-4.77;100.00;89885.59;4988356;28;20042;-78
2023/01/18 06:07:09;;;;;;;2.45;1.50;;;;;;;-4.75;100.00;89889.44;4987275;28;20081;-77
2023/01/18 06:09:35;;;;;;;3.30;1.77;;;;;;;-4.73;100.00;89896.84;4967891;28;20387;-77
2023/01/18 06:12:01;;;;;;;3.67;1.77;;;;;;;-4.73;100.00;89899.38;4975374;28;20038;-78
2023/01/18 06:14:26;;;;;;;3.28;1.80;;;;;;;-4.75;100.00;89901.44;4988723;28;21726;-77
2023/01/18 06:16:52;;;;;;;2.58;1.70;;;;;;;-4.77;100.00;89900.91;4989670;28;20038;-77
2023/01/18 06:19:18;;;;;;;2.22;1.48;;;;;;;-4.83;100.00;89903.47;4992816;28;20037;-78
2023/01/18 06:21:43;;;;;;;3.22;1.80;;;;;;;-4.82;100.00;89907.59;4991142;28;20038;-77
2023/01/18 06:24:09;;;;;;;3.75;1.65;;;;;;;-4.83;100.00;89916.25;4992424;28;20042;-77
2023/01/18 06:26:35;;;;;;;2.70;1.60;;;;;;;-4.83;100.00;89915.47;4991722;28;20482;-77
2023/01/18 06:29:00;;;;;;;1.75;1.30;;;;;;;-4.84;100.00;89919.03;4987053;28;20038;-77
2023/01/18 06:31:26;;;;;;;4.05;1.52;;;;;;;-4.87;100.00;89920.31;4993650;28;20050;-77
2023/01/18 06:33:51;;;;;;;2.00;1.40;;;;;;;-4.87;100.00;89930.53;4991917;28;20026;-77
2023/01/18 06:36:17;;;;;;;2.20;1.52;;;;;;;-4.80;100.00;89932.81;4991760;28;20034;-76
2023/01/18 06:38:42;;;;;;;2.50;1.60;;;;;;;-4.80;100.00;89932.81;4992017;28;20389;-77
2023/01/18 06:41:08;;;;;;;5.00;1.60;;;;;;;-4.74;100.00;89936.91;4992343;28;20034;-77
2023/01/18 06:43:34;;;;;;;2.55;1.50;;;;;;;-4.73;100.00;89941.00;4993267;28;20052;-77
2023/01/18 06:45:59;;;;;;;2.15;1.40;;;;;;;-4.77;100.00;89939.19;4993257;28;20043;-77
2023/01/18 06:48:26;;;;;;;2.42;1.40;;;;;;;-4.83;100.00;89944.31;4976109;28;20481;-77
2023/01/18 06:50:54;;;;;;;2.53;1.33;;;;;;;-4.79;100.00;89954.78;4976549;28;20051;-77
2023/01/18 06:53:20;;;;;;;2.53;1.38;;;;;;;-4.79;100.00;89946.38;4973684;28;20047;-76
2023/01/18 06:55:57;;;;;;;1.25;1.08;;;;;;;-4.79;100.00;89961.69;4973702;28;20065;-77
2023/01/18 06:58:24;;;;;;;1.67;1.20;;;;;;;-4.81;100.00;89955.03;4972287;28;20091;-77
2023/01/18 07:00:53;;;;;;;2.33;1.38;;;;;;;-4.80;100.00;89960.91;4973259;28;20413;-77
2023/01/18 07:03:19;;;;;;;2.33;1.38;;;;;;;-4.79;100.00;89961.69;4972333;28;20035;-77
2023/01/18 07:05:45;;;;;;;1.92;1.30;;;;;;;-4.78;100.00;89961.41;4939831;28;20054;-77
2023/01/18 07:08:11;;;;;;;1.42;1.20;;;;;;;-4.74;100.00;89969.34;4973210;28;20500;-77
2023/01/18 07:10:37;;;;;;;1.42;1.20;;;;;;;-4.72;100.00;89964.75;4972079;28;20310;-77
2023/01/18 07:13:02;;;;;;;2.03;1.25;;;;;;;-4.72;100.00;89965.50;4973437;28;20493;-77
2023/01/18 07:15:28;;;;;;;1.80;1.23;;;;;;;-4.69;100.00;89962.44;4971944;28;20046;-77
2023/01/18 07:17:54;;;;;;;1.83;1.30;;;;;;;-4.66;100.00;89969.59;4971586;28;20461;-77
2023/01/18 07:20:19;;;;;;;1.85;1.30;;;;;;;-4.60;100.00;89971.09;4971276;28;20043;-77
2023/01/18 07:22:49;;;;;;;1.20;1.10;;;;;;;-4.19;100.00;89973.66;4973040;28;20560;-77
2023/01/18 07:25:17;;;;;;;2.83;1.60;;;;;;;-3.12;100.00;89981.94;4973226;28;20034;-76
2023/01/18 07:27:43;;;;;;;2.60;1.60;;;;;;;-1.75;100.00;89976.00;4971437;28;20130;-77
2023/01/18 07:30:12;;;;;;;2.45;1.35;;;;;;;-0.49;100.00;89979.03;4973979;28;20114;-79
2023/01/18 07:32:38;;;;;;;2.55;1.55;;;;;;;0.64;100.00;89977.88;4974344;28;20031;-77
2023/01/18 07:35:04;;;;;;;2.00;1.30;;;;;;;1.57;100.00;89987.81;4977255;28;20046;-79
2023/01/18 07:37:30;;;;;;;4.82;1.30;;;;;;;2.59;100.00;89979.47;4976111;28;20035;-78
2023/01/18 07:39:55;;;;;;;1.67;1.10;;;;;;;3.50;100.00;89982.41;4974485;28;20470;-77
2023/01/18 07:42:21;;;;;;;2.33;1.30;;;;;;;4.13;88.47;89985.41;4973617;28;20030;-77
2023/01/18 07:44:47;;;;;;;2.25;1.20;;;;;;;4.75;85.67;89990.13;4974981;28;20133;-78
2023/01/18 07:47:13;;;;;;;1.50;1.10;;;;;;;5.29;79.94;89986.19;4975295;28;20095;-77
2023/01/18 07:49:38;;;;;;;1.60;1.10;;;;;;;6.08;74.67;89992.41;4974838;28;20153;-78
2023/01/18 07:52:04;;;;;;;3.88;1.27;;;;;;;6.90;75.76;89990.97;4974887;28;20046;-78
2023/01/18 07:54:30;;;;;;;1.45;1.00;;;;;;;6.98;66.86;89992.69;4975773;28;20047;-78
2023/01/18 07:56:55;;;;;;;2.42;1.20;;;;;;;7.55;63.57;89993.66;4977145;28;20039;-78
2023/01/18 07:59:21;;;;;;;1.45;1.13;;;;;;;8.10;61.37;89997.44;4983328;28;20047;-78
2023/01/18 08:01:46;;;;;;;1.55;1.13;;;;;;;8.92;59.73;89998.84;4983021;28;20179;-78
2023/01/18 08:04:12;;;;;;;1.90;1.20;;;;;;;8.74;56.13;90014.78;4975631;28;20039;-78
2023/01/18 08:06:37;;;;;;;1.25;1.08;;;;;;;9.01;55.72;90012.47;4975036;28;20042;-79
2023/01/18 08:09:03;;;;;;;2.10;1.30;;;;;;;9.05;52.46;90015.16;4974139;28;20390;-78
2023/01/18 08:11:29;;;;;;;1.30;1.10;;;;;;;9.41;52.98;90013.38;4974475;28;20050;-79
2023/01/18 08:13:54;;;;;;;1.48;1.08;;;;;;;10.18;51.86;90013.56;4977080;28;20409;-79
2023/01/18 08:16:20;;;;;;;1.27;1.10;;;;;;;10.72;47.76;90019.09;4976208;28;20027;-78
2023/01/18 08:18:49;;;;;;;1.40;1.05;;;;;;;10.75;47.31;90023.63;4977385;28;20046;-78
2023/01/18 08:21:15;;;;;;;1.33;1.17;;;;;;;10.15;48.56;90031.78;4975637;28;20046;-78
2023/01/18 08:23:40;;;;;;;2.53;1.40;;;;;;;10.61;48.73;90030.09;4975345;28;20465;-78
2023/01/18 08:26:08;;;;;;;2.10;1.50;;;;;;;10.89;47.63;90026.47;4977530;28;20034;-78
2023/01/18 08:28:33;;;;;;;2.22;1.30;;;;;;;11.45;46.75;90033.03;4976301;28;20532;-78
2023/01/18 08:31:14;;;;;;;2.10;1.20;;;;;;;11.69;45.73;90036.38;4977339;28;20064;-78
2023/01/18 08:33:46;;;;;;;2.08;1.33;;;;;;;12.05;43.66;90032.44;4977048;28;20026;-78
2023/01/18 08:36:15;;;;;;;2.38;1.25;;;;;;;12.67;42.92;90035.44;4977181;28;20413;-78
2023/01/18 08:38:40;;;;;;;3.65;1.38;;;;;;;13.36;41.42;90030.91;4976843;28;20126;-78
2023/01/18 08:41:06;;;;;;;2.30;1.50;;;;;;;12.89;42.58;90046.19;4974953;28;20508;-78
2023/01/18 08:43:32;;;;;;;2.65;1.42;;;;;;;13.75;39.29;90047.00;4977256;28;20037;-78
2023/01/18 08:45:58;;;;;;;2.33;1.30;;;;;;;13.64;40.07;90051.41;4991393;28;20054;-78
2023/01/18 08:48:23;;;;;;;3.45;1.90;;;;;;;14.52;38.76;90052.34;4976815;28;20090;-78
2023/01/18 08:50:49;;;;;;;5.28;2.92;;;;;;;14.51;39.94;90062.13;4976971;28;20051;-78
2023/01/18 08:53:14;;;;;;;4.63;2.75;;;;;;;16.12;37.77;90068.94;4975746;28;20046;-78
2023/01/18 08:55:40;;;;;;;4.63;2.90;;;;;;;14.72;37.89;90066.78;4977679;28;20029;-78
2023/01/18 08:58:06;;;;;;;5.45;2.95;;;;;;;14.70;39.18;90070.91;4975972;28;20106;-78
2023/01/18 09:00:31;;;;;;;5.30;2.50;;;;;;;12.94;40.98;90081.88;4976639;28;20100;-78
2023/01/18 09:02:58;;;;;;;5.00;2.88;;;;;;;13.16;42.42;90080.25;4976077;28;20105;-78
2023/01/18 09:05:25;;;;;;;6.22;2.67;;;;;;;12.04;43.61;90088.59;4978590;28;20130;-78
2023/01/18 09:07:53;;;;;;;4.40;2.70;;;;;;;10.72;47.16;90084.50;4990251;28;20037;-77
2023/01/18 09:10:20;;;;;;;5.25;3.50;;;;;;;11.28;47.16;90096.34;4990235;28;20065;-78
2023/01/18 09:12:46;;;;;;;6.25;3.40;;;;;;;11.77;47.49;90095.66;4978470;28;20389;-78
2023/01/18 09:15:12;;;;;;;6.80;3.95;;;;;;;11.75;47.34;90101.22;4977292;28;20027;-77
2023/01/18 09:17:38;;;;;;;7.15;4.20;;;;;;;11.25;49.47;90105.66;4975068;28;20038;-78
2023/01/18 09:20:08;;;;;;;8.02;3.70;;;;;;;11.07;48.83;90107.94;4973626;28;20046;-77
2023/01/18 09:22:38;;;;;;;7.47;3.58;;;;;;;10.80;50.83;90110.44;4972775;28;20414;-78
2023/01/18 09:25:04;;;;;;;5.70;3.20;;;;;;;10.93;49.87;90116.28;4973890;28;20047;-77
2023/01/18 09:27:31;;;;;;;6.30;3.47;;;;;;;11.90;47.83;90125.09;4973299;28;20095;-77
2023/01/18 09:29:56;;;;;;;7.00;3.50;;;;;;;11.55;49.29;90126.75;4972214;28;20445;-77
2023/01/18 09:32:24;;;;;;;6.28;3.53;;;;;;;10.68;49.35;90130.75;4973924;28;20038;-77
2023/01/18 09:34:49;;;;;;;7.07;3.47;;;;;;;9.84;54.21;90134.50;4973151;28;20030;-77
2023/01/18 09:37:18;;;;;;;6.10;3.40;;;;;;;10.65;50.64;90131.44;4974510;28;20243;-78
2023/01/18 09:39:44;;;;;;;5.07;3.28;;;;;;;9.15;53.28;90137.34;4975689;28;20070;-78
2023/01/18 09:42:20;;;;;;;6.80;3.85;;;;;;;9.63;54.53;90127.69;4975863;28;20413;-78
2023/01/18 09:44:51;;;;;;;5.63;3.20;;;;;;;9.78;52.93;90141.84;4974499;28;20039;-78
2023/01/18 09:47:22;;;;;;;4.43;2.50;;;;;;;9.88;51.49;90140.59;4976299;28;20046;-77
2023/01/18 09:49:53;;;;;;;5.88;3.28;;;;;;;9.20;53.14;90144.91;4957901;28;20061;-78
2023/01/18 09:52:31;;;;;;;10.90;3.90;;;;;;;8.84;56.45;90153.66;4976700;28;20035;-79
2023/01/18 09:55:23;;;;;;;6.20;3.47;;;;;;;8.09;56.55;90158.22;4982483;28;20039;-78
2023/01/18 09:58:14;;;;;;;7.78;3.67;;;;;;;8.75;57.33;90154.53;4980604;28;20026;-78
2023/01/18 10:00:45;;;;;;;5.63;3.17;;;;;;;8.63;59.97;90156.44;4979766;28;20039;-78
2023/01/18 10:03:22;;;;;;;4.85;2.67;;;;;;;8.88;56.26;90157.88;4980145;28;20066;-78
2023/01/18 10:06:07;;;;;;;6.25;3.58;;;;;;;8.41;59.04;90155.84;4981258;28;20565;-78
2023/01/18 10:08:48;;;;;;;7.15;3.60;;;;;;;8.48;57.08;90158.63;4980553;28;20050;-78
2023/01/18 10:11:32;;;;;;;5.47;3.22;;;;;;;9.15;57.44;90153.00;4979598;28;20038;-78
2023/01/18 10:14:12;;;;;;;5.20;3.45;;;;;;;8.82;57.37;90161.81;4979498;28;20043;-78
2023/01/18 10:16:38;;;;;;;7.13;3.55;;;;;;;8.63;56.00;90144.16;4980116;28;20050;-79
2023/01/18 10:19:23;;;;;;;6.40;3.63;;;;;;;7.53;60.68;90165.81;4979799;28;20405;-78
2023/01/18 10:22:11;;;;;;;5.45;3.10;;;;;;;6.84;63.42;90165.38;4976268;28;20035;-78
2023/01/18 10:25:30;;;;;;;23.58;3.53;;;;;;;7.67;62.30;90162.88;4979844;28;20039;-78
2023/01/18 10:28:25;;;;;;;6.20;3.75;;;;;;;8.17;62.60;90167.00;4978774;28;20517;-78
2023/01/18 10:30:57;;;;;;;6.13;3.25;;;;;;;9.34;57.72;90165.41;4979178;28;20097;-78
2023/01/18 10:33:29;;;;;;;7.32;3.70;;;;;;;10.04;55.00;90164.09;4980451;28;20061;-78
2023/01/18 10:36:25;;;;;;;5.88;3.25;;;;;;;10.33;55.47;90165.53;4979874;28;20143;-79
2023/01/18 10:38:54;;;;;;;3.92;2.42;;;;;;;9.40;54.34;90168.53;4979825;28;20128;-77
2023/01/18 10:41:27;;;;;;;5.95;3.40;;;;;;;8.57;58.96;90170.81;4980355;28;20027;-78
2023/01/18 10:43:53;;;;;;;6.88;3.80;;;;;;;8.22;60.84;90176.44;4981499;28;20097;-78
2023/01/18 10:46:19;;;;;;;6.85;4.05;;;;;;;8.28;58.32;90180.38;4981518;28;20133;-79
2023/01/18 10:48:47;;;;;;;5.38;3.22;;;;;;;8.13;58.78;90172.13;4981886;28;20516;-81
2023/01/18 10:51:33;;;;;;;6.40;3.40;;;;;;;8.78;58.33;90176.63;4979058;28;20046;-81
2023/01/18 10:54:21;;;;;;;6.05;3.47;;;;;;;8.99;58.02;90176.44;4977101;28;20125;-78
2023/01/18 10:56:47;;;;;;;5.13;3.13;;;;;;;8.87;55.06;90174.63;4978067;28;20035;-79
2023/01/18 10:59:25;;;;;;;6.82;3.80;;;;;;;7.91;60.03;90181.13;4978564;28;20139;-79
2023/01/18 11:01:54;;;;;;;6.22;3.38;;;;;;;7.71;63.36;90180.16;4977496;28;20066;-79
2023/01/18 11:04:25;;;;;;;6.35;3.47;;;;;;;7.65;60.57;90184.03;4978855;28;20288;-79
2023/01/18 11:06:56;;;;;;;6.35;3.60;;;;;;;7.89;60.59;90180.69;4979676;28;20111;-80
2023/01/18 11:09:54;;;;;;;2.90;1.83;;;;;;;7.62;60.73;90176.88;4977384;28;20520;-79
2023/01/18 11:12:56;;;;;;;6.55;3.95;;;;;;;7.26;62.30;90186.13;4961684;28;20042;-79
2023/01/18 11:15:25;;;;;;;6.03;3.50;;;;;;;6.77;64.38;90180.75;4972749;28;20043;-79
2023/01/18 11:17:56;;;;;;;4.22;2.20;;;;;;;6.37;66.32;90186.41;4978309;28;20034;-79
2023/01/18 11:20:33;;;;;;;3.83;2.33;;;;;;;5.79;66.15;90182.72;4978393;28;20043;-79
2023/01/18 11:23:08;;;;;;;5.15;2.58;;;;;;;5.68;62.77;90181.53;4977070;28;20030;-79
2023/01/18 11:25:46;;;;;;;6.13;3.58;;;;;;;5.74;65.02;90188.06;4976034;28;20401;-78
2023/01/18 11:28:20;;;;;;;3.95;2.20;;;;;;;6.28;62.72;90185.69;4975475;28;20445;-77
2023/01/18 11:30:55;;;;;;;5.80;2.90;;;;;;;6.52;63.38;90194.72;4975928;28;20049;-78
2023/01/18 11:33:24;;;;;;;5.40;2.47;;;;;;;6.41;57.51;90189.88;4975796;28;20062;-78
2023/01/18 11:35:56;;;;;;;3.10;1.65;;;;;;;6.24;57.61;90195.19;4975420;28;20101;-77
2023/01/18 11:38:27;;;;;;;2.53;1.42;;;;;;;6.37;56.46;90194.22;4974622;28;20042;-79
2023/01/18 11:41:14;;;;;;;3.50;1.85;;;;;;;5.91;56.83;90185.41;4976499;28;20058;-78
2023/01/18 11:43:54;;;;;;;4.78;2.50;;;;;;;6.05;60.68;90188.56;4978007;28;20047;-78
2023/01/18 11:46:33;;;;;;;2.65;1.65;;;;;;;6.74;54.88;90193.63;4975934;28;20046;-77
2023/01/18 11:49:15;;;;;;;4.53;2.17;;;;;;;6.14;56.84;90192.94;4975571;28;20500;-79
2023/01/18 11:51:50;;;;;;;5.77;2.70;;;;;;;6.85;59.65;90187.72;4975681;28;20051;-79
2023/01/18 11:54:17;;;;;;;4.55;2.40;;;;;;;7.99;57.40;90189.16;4972542;28;20381;-78
2023/01/18 11:56:46;;;;;;;4.18;2.30;;;;;;;8.29;54.72;90179.28;4974178;28;20022;-78
2023/01/18 11:59:35;;;;;;;4.28;2.13;;;;;;;8.48;52.36;90179.50;4957625;28;20042;-77
2023/01/18 12:02:16;;;;;;;5.78;2.20;;;;;;;8.71;53.55;90192.84;4974205;28;20165;-77
2023/01/18 12:05:12;;;;;;;5.28;2.20;;;;;;;8.43;53.92;90187.56;4957713;28;20155;-76
2023/01/18 12:08:04;;;;;;;3.85;2.20;;;;;;;7.36;57.22;90195.38;4973836;28;20063;-78
2023/01/18 12:10:43;;;;;;;5.85;2.78;;;;;;;7.08;60.03;90192.59;4975721;28;20043;-76
2023/01/18 12:13:41;;;;;;;5.88;3.25;;;;;;;6.42;62.75;90194.00;4975540;28;20445;-77
2023/01/18 12:16:16;;;;;;;3.97;2.10;;;;;;;6.81;58.39;90197.25;4974383;28;20027;-78
2023/01/18 12:19:09;;;;;;;3.78;2.22;;;;;;;6.65;60.74;90194.47;4976034;28;20126;-77
2023/01/18 12:21:43;;;;;;;4.60;2.53;;;;;;;6.49;61.89;90197.94;4976355;28;20149;-78
2023/01/18 12:24:30;;;;;;;4.43;2.45;;;;;;;6.45;60.49;90201.16;4976713;28;20046;-79
2023/01/18 12:27:18;;;;;;;5.38;2.70;;;;;;;6.23;62.97;90196.25;4974871;28;20041;-78